sensor_id;sensor_type;location;lat;lon;timestamp;pressure;altitude;pressure_sealevel;temperature;humidity
56082;BME280;41957;52.060;5.138;2022-08-02T00:01:19;101997.00;;;22.39;53.94
56082;BME280;41957;52.060;5.138;2022-08-02T00:03:45;101998.81;;;22.39;54.14
56082;BME280;41957;52.060;5.138;2022-08-02T00:06:10;101989.94;;;22.38;54.27
56082;BME280;41957;52.060;5.138;2022-08-02T00:08:35;101983.63;;;22.39;54.21
56082;BME280;41957;52.060;5.138;2022-08-02T00:11:00;101981.97;;;22.37;54.31
56082;BME280;41957;52.060;5.138;2022-08-02T00:13:26;101977.50;;;22.37;54.24
56082;BME280;41957;52.060;5.138;2022-08-02T00:15:51;101978.34;;;22.38;54.18
56082;BME280;41957;52.060;5.138;2022-08-02T00:18:16;101981.03;;;22.38;54.23
56082;BME280;41957;52.060;5.138;2022-08-02T00:20:41;101977.50;;;22.37;54.24
56082;BME280;41957;52.060;5.138;2022-08-02T00:23:07;101978.50;;;22.35;54.39
56082;BME280;41957;52.060;5.138;2022-08-02T00:25:32;101974.88;;;22.36;54.38
56082;BME280;41957;52.060;5.138;2022-08-02T00:27:57;101970.31;;;22.38;54.27
56082;BME280;41957;52.060;5.138;2022-08-02T00:30:22;101963.28;;;22.35;54.10
56082;BME280;41957;52.060;5.138;2022-08-02T00:32:47;101963.38;;;22.34;54.20
56082;BME280;41957;52.060;5.138;2022-08-02T00:35:13;101966.13;;;22.32;54.35
56082;BME280;41957;52.060;5.138;2022-08-02T00:37:39;101963.53;;;22.31;54.27
56082;BME280;41957;52.060;5.138;2022-08-02T00:40:04;101960.84;;;22.31;54.30
56082;BME280;41957;52.060;5.138;2022-08-02T00:42:30;101973.28;;;22.32;54.34
56082;BME280;41957;52.060;5.138;2022-08-02T00:44:55;101961.72;;;22.31;54.30
56082;BME280;41957;52.060;5.138;2022-08-02T00:47:20;101963.53;;;22.31;54.06
56082;BME280;41957;52.060;5.138;2022-08-02T00:49:46;101954.59;;;22.30;54.14
56082;BME280;41957;52.060;5.138;2022-08-02T00:52:11;101957.38;;;22.29;54.03
56082;BME280;41957;52.060;5.138;2022-08-02T00:54:36;101956.50;;;22.28;54.37
56082;BME280;41957;52.060;5.138;2022-08-02T00:57:01;101943.16;;;22.27;54.09
56082;BME280;41957;52.060;5.138;2022-08-02T00:59:26;101945.94;;;22.25;54.14
56082;BME280;41957;52.060;5.138;2022-08-02T01:01:52;101950.44;;;22.25;54.05
56082;BME280;41957;52.060;5.138;2022-08-02T01:04:17;101939.72;;;22.25;54.17
56082;BME280;41957;52.060;5.138;2022-08-02T01:06:42;101933.47;;;22.24;54.05
56082;BME280;41957;52.060;5.138;2022-08-02T01:09:08;101937.97;;;22.24;54.08
56082;BME280;41957;52.060;5.138;2022-08-02T01:11:33;101937.09;;;22.23;54.17
56082;BME280;41957;52.060;5.138;2022-08-02T01:14:09;101929.00;;;22.25;54.08
56082;BME280;41957;52.060;5.138;2022-08-02T01:16:40;101931.81;;;22.21;54.05
56082;BME280;41957;52.060;5.138;2022-08-02T01:19:15;101929.13;;;22.21;53.99
56082;BME280;41957;52.060;5.138;2022-08-02T01:21:49;101921.09;;;22.21;53.91
56082;BME280;41957;52.060;5.138;2022-08-02T01:26:51;101930.03;;;22.22;54.18
56082;BME280;41957;52.060;5.138;2022-08-02T01:29:21;101927.41;;;22.20;53.87
56082;BME280;41957;52.060;5.138;2022-08-02T01:31:54;101926.44;;;22.21;53.79
56082;BME280;41957;52.060;5.138;2022-08-02T01:37:33;101922.03;;;22.20;53.93
56082;BME280;41957;52.060;5.138;2022-08-02T01:39:37;101922.03;;;22.20;53.80
56082;BME280;41957;52.060;5.138;2022-08-02T01:42:04;101923.00;;;22.19;53.96
56082;BME280;41957;52.060;5.138;2022-08-02T01:44:32;101919.47;;;22.19;53.94
56082;BME280;41957;52.060;5.138;2022-08-02T01:47:00;101918.56;;;22.18;53.94
56082;BME280;41957;52.060;5.138;2022-08-02T01:49:26;101926.53;;;22.20;53.81
56082;BME280;41957;52.060;5.138;2022-08-02T01:51:53;101935.53;;;22.19;53.81
56082;BME280;41957;52.060;5.138;2022-08-02T01:54:39;101924.72;;;22.20;53.68
56082;BME280;41957;52.060;5.138;2022-08-02T01:57:06;101923.84;;;22.20;53.64
56082;BME280;41957;52.060;5.138;2022-08-02T01:59:34;101922.03;;;22.20;53.76
56082;BME280;41957;52.060;5.138;2022-08-02T02:02:00;101919.38;;;22.20;53.71
56082;BME280;41957;52.060;5.138;2022-08-02T02:04:27;101922.03;;;22.20;53.66
56082;BME280;41957;52.060;5.138;2022-08-02T02:06:53;101915.88;;;22.18;53.68
56082;BME280;41957;52.060;5.138;2022-08-02T02:09:20;101917.53;;;22.21;53.67
56082;BME280;41957;52.060;5.138;2022-08-02T02:11:46;101917.63;;;22.19;53.80
56082;BME280;41957;52.060;5.138;2022-08-02T02:14:12;101915.72;;;22.21;53.66
56082;BME280;41957;52.060;5.138;2022-08-02T02:16:39;101908.75;;;22.19;53.75
56082;BME280;41957;52.060;5.138;2022-08-02T02:19:05;101911.31;;;22.20;53.64
56082;BME280;41957;52.060;5.138;2022-08-02T02:21:31;101914.97;;;22.19;53.71
56082;BME280;41957;52.060;5.138;2022-08-02T02:23:57;101909.59;;;22.19;53.52
56082;BME280;41957;52.060;5.138;2022-08-02T02:26:22;101908.75;;;22.19;53.65
56082;BME280;41957;52.060;5.138;2022-08-02T02:28:47;101900.78;;;22.17;53.62
56082;BME280;41957;52.060;5.138;2022-08-02T02:31:14;101902.50;;;22.18;53.52
56082;BME280;41957;52.060;5.138;2022-08-02T02:33:43;101900.78;;;22.17;53.60
56082;BME280;41957;52.060;5.138;2022-08-02T02:36:10;101895.53;;;22.14;53.82
56082;BME280;41957;52.060;5.138;2022-08-02T02:38:37;101891.03;;;22.15;53.68
56082;BME280;41957;52.060;5.138;2022-08-02T02:41:04;101891.00;;;22.16;53.58
56082;BME280;41957;52.060;5.138;2022-08-02T02:43:31;101883.84;;;22.17;53.56
56082;BME280;41957;52.060;5.138;2022-08-02T02:45:57;101885.66;;;22.16;53.72
56082;BME280;41957;52.060;5.138;2022-08-02T02:48:23;101885.56;;;22.18;53.57
56082;BME280;41957;52.060;5.138;2022-08-02T02:50:49;101872.16;;;22.18;53.44
56082;BME280;41957;52.060;5.138;2022-08-02T02:53:15;101882.03;;;22.17;53.52
56082;BME280;41957;52.060;5.138;2022-08-02T02:55:42;101886.41;;;22.18;53.75
56082;BME280;41957;52.060;5.138;2022-08-02T02:58:08;101882.03;;;22.17;53.46
56082;BME280;41957;52.060;5.138;2022-08-02T03:00:33;101888.19;;;22.19;53.74
56082;BME280;41957;52.060;5.138;2022-08-02T03:03:17;101884.63;;;22.19;53.61
56082;BME280;41957;52.060;5.138;2022-08-02T03:05:42;101880.28;;;22.16;53.52
56082;BME280;41957;52.060;5.138;2022-08-02T03:08:09;101885.56;;;22.18;53.60
56082;BME280;41957;52.060;5.138;2022-08-02T03:10:34;101886.41;;;22.18;53.65
56082;BME280;41957;52.060;5.138;2022-08-02T03:12:59;101890.06;;;22.17;53.52
56082;BME280;41957;52.060;5.138;2022-08-02T03:15:26;101875.72;;;22.18;53.44
56082;BME280;41957;52.060;5.138;2022-08-02T03:17:51;101886.41;;;22.18;53.33
56082;BME280;41957;52.060;5.138;2022-08-02T03:20:17;101877.53;;;22.18;53.63
56082;BME280;41957;52.060;5.138;2022-08-02T03:22:43;101876.72;;;22.16;53.61
56082;BME280;41957;52.060;5.138;2022-08-02T03:25:09;101874.97;;;22.15;53.61
56082;BME280;41957;52.060;5.138;2022-08-02T03:27:35;101879.41;;;22.16;53.52
56082;BME280;41957;52.060;5.138;2022-08-02T03:30:00;101874.97;;;22.15;53.42
56082;BME280;41957;52.060;5.138;2022-08-02T03:32:25;101874.03;;;22.16;53.65
56082;BME280;41957;52.060;5.138;2022-08-02T03:34:51;101875.06;;;22.13;53.61
56082;BME280;41957;52.060;5.138;2022-08-02T03:37:16;101866.06;;;22.14;53.68
56082;BME280;41957;52.060;5.138;2022-08-02T03:39:41;101857.16;;;22.14;53.42
56082;BME280;41957;52.060;5.138;2022-08-02T03:42:07;101849.19;;;22.12;53.67
56082;BME280;41957;52.060;5.138;2022-08-02T03:44:33;101844.75;;;22.13;53.58
56082;BME280;41957;52.060;5.138;2022-08-02T03:46:58;101848.34;;;22.12;53.50
56082;BME280;41957;52.060;5.138;2022-08-02T03:49:23;101838.59;;;22.11;53.57
56082;BME280;41957;52.060;5.138;2022-08-02T03:51:49;101840.41;;;22.10;53.67
56082;BME280;41957;52.060;5.138;2022-08-02T03:54:16;101840.41;;;22.10;53.67
56082;BME280;41957;52.060;5.138;2022-08-02T03:56:41;101843.06;;;22.10;53.56
56082;BME280;41957;52.060;5.138;2022-08-02T03:59:07;101848.44;;;22.10;53.74
56082;BME280;41957;52.060;5.138;2022-08-02T04:01:33;101852.94;;;22.10;53.94
56082;BME280;41957;52.060;5.138;2022-08-02T04:03:58;101857.31;;;22.11;53.68
56082;BME280;41957;52.060;5.138;2022-08-02T04:06:23;101852.97;;;22.08;53.72
56082;BME280;41957;52.060;5.138;2022-08-02T04:08:49;101858.19;;;22.11;53.83
56082;BME280;41957;52.060;5.138;2022-08-02T04:11:16;101849.28;;;22.11;53.67
56082;BME280;41957;52.060;5.138;2022-08-02T04:13:58;101843.06;;;22.10;53.64
56082;BME280;41957;52.060;5.138;2022-08-02T04:19:04;101840.41;;;22.10;53.51
56082;BME280;41957;52.060;5.138;2022-08-02T04:21:31;101842.22;;;22.10;53.68
56082;BME280;41957;52.060;5.138;2022-08-02T04:23:58;101840.41;;;22.10;53.73
56082;BME280;41957;52.060;5.138;2022-08-02T04:26:24;101840.41;;;22.10;53.60
56082;BME280;41957;52.060;5.138;2022-08-02T04:28:49;101841.25;;;22.11;53.82
56082;BME280;41957;52.060;5.138;2022-08-02T04:31:17;101842.28;;;22.08;53.65
56082;BME280;41957;52.060;5.138;2022-08-02T04:33:43;101839.53;;;22.10;53.84
56082;BME280;41957;52.060;5.138;2022-08-02T04:36:09;101839.59;;;22.08;53.55
56082;BME280;41957;52.060;5.138;2022-08-02T04:38:34;101844.81;;;22.11;53.80
56082;BME280;41957;52.060;5.138;2022-08-02T04:41:00;101840.41;;;22.10;53.62
56082;BME280;41957;52.060;5.138;2022-08-02T04:43:25;101839.44;;;22.11;53.63
56082;BME280;41957;52.060;5.138;2022-08-02T04:45:51;101831.41;;;22.11;53.59
56082;BME280;41957;52.060;5.138;2022-08-02T04:48:17;101839.44;;;22.11;53.74
56082;BME280;41957;52.060;5.138;2022-08-02T04:50:42;101837.78;;;22.09;53.44
56082;BME280;41957;52.060;5.138;2022-08-02T04:53:08;101841.41;;;22.08;53.49
56082;BME280;41957;52.060;5.138;2022-08-02T04:55:33;101836.06;;;22.08;53.43
56082;BME280;41957;52.060;5.138;2022-08-02T04:57:58;101828.88;;;22.08;53.44
56082;BME280;41957;52.060;5.138;2022-08-02T05:00:26;101827.16;;;22.07;53.18
56082;BME280;41957;52.060;5.138;2022-08-02T05:02:51;101825.25;;;22.09;52.99
56082;BME280;41957;52.060;5.138;2022-08-02T05:05:17;101817.06;;;22.12;52.99
56082;BME280;41957;52.060;5.138;2022-08-02T05:07:42;101800.72;;;22.18;52.60
56082;BME280;41957;52.060;5.138;2022-08-02T05:10:07;101798.69;;;22.24;52.55
56082;BME280;41957;52.060;5.138;2022-08-02T05:12:33;101800.03;;;22.32;52.15
56082;BME280;41957;52.060;5.138;2022-08-02T05:14:58;101800.41;;;22.42;51.49
56082;BME280;41957;52.060;5.138;2022-08-02T05:17:23;101802.34;;;22.40;51.27
56082;BME280;41957;52.060;5.138;2022-08-02T05:19:48;101810.44;;;22.38;51.24
56082;BME280;41957;52.060;5.138;2022-08-02T05:22:13;101807.69;;;22.40;51.05
56082;BME280;41957;52.060;5.138;2022-08-02T05:24:39;101813.91;;;22.40;50.88
56082;BME280;41957;52.060;5.138;2022-08-02T05:27:04;101819.25;;;22.40;50.64
56082;BME280;41957;52.060;5.138;2022-08-02T05:29:29;101825.47;;;22.41;50.68
56082;BME280;41957;52.060;5.138;2022-08-02T05:31:54;101826.44;;;22.40;50.76
56082;BME280;41957;52.060;5.138;2022-08-02T05:34:20;101840.75;;;22.39;50.56
56082;BME280;41957;52.060;5.138;2022-08-02T05:36:45;101836.19;;;22.24;47.96
56082;BME280;41957;52.060;5.138;2022-08-02T05:39:10;101828.63;;;21.95;48.32
56082;BME280;41957;52.060;5.138;2022-08-02T05:41:36;101835.75;;;21.77;48.62
56082;BME280;41957;52.060;5.138;2022-08-02T05:44:01;101839.53;;;21.73;48.86
56082;BME280;41957;52.060;5.138;2022-08-02T05:46:27;101831.09;;;21.64;48.75
56082;BME280;41957;52.060;5.138;2022-08-02T05:48:52;101831.78;;;21.67;49.13
56082;BME280;41957;52.060;5.138;2022-08-02T05:51:21;101834.69;;;21.99;49.20
56082;BME280;41957;52.060;5.138;2022-08-02T05:54:08;101828.88;;;22.08;49.22
56082;BME280;41957;52.060;5.138;2022-08-02T05:56:44;101829.84;;;22.07;49.48
56082;BME280;41957;52.060;5.138;2022-08-02T05:59:28;101839.53;;;22.10;49.47
56082;BME280;41957;52.060;5.138;2022-08-02T06:01:56;101828.66;;;22.13;50.06
56082;BME280;41957;52.060;5.138;2022-08-02T06:04:28;101824.81;;;22.18;50.33
56082;BME280;41957;52.060;5.138;2022-08-02T06:06:57;101829.09;;;22.23;50.31
56082;BME280;41957;52.060;5.138;2022-08-02T06:09:26;101823.50;;;22.27;50.36
56082;BME280;41957;52.060;5.138;2022-08-02T06:11:52;101825.00;;;22.33;49.92
56082;BME280;41957;52.060;5.138;2022-08-02T06:14:18;101819.31;;;22.39;50.09
56082;BME280;41957;52.060;5.138;2022-08-02T06:16:43;101816.34;;;22.45;50.29
56082;BME280;41957;52.060;5.138;2022-08-02T06:19:12;101817.13;;;22.47;50.19
56082;BME280;41957;52.060;5.138;2022-08-02T06:21:40;101812.47;;;22.51;50.45
56082;BME280;41957;52.060;5.138;2022-08-02T06:24:07;101811.28;;;22.56;50.50
56082;BME280;41957;52.060;5.138;2022-08-02T06:26:33;101816.22;;;22.64;50.19
56082;BME280;41957;52.060;5.138;2022-08-02T06:29:00;101812.31;;;22.71;50.28
56082;BME280;41957;52.060;5.138;2022-08-02T06:31:25;101806.63;;;22.77;50.39
56082;BME280;41957;52.060;5.138;2022-08-02T06:33:50;101800.13;;;22.81;50.09
56082;BME280;41957;52.060;5.138;2022-08-02T06:36:18;101805.28;;;22.86;50.32
56082;BME280;41957;52.060;5.138;2022-08-02T06:38:50;101798.84;;;22.88;50.03
56082;BME280;41957;52.060;5.138;2022-08-02T06:41:17;101795.13;;;22.91;50.43
56082;BME280;41957;52.060;5.138;2022-08-02T06:43:53;101791.41;;;22.95;50.18
56082;BME280;41957;52.060;5.138;2022-08-02T06:46:19;101791.22;;;22.98;50.36
56082;BME280;41957;52.060;5.138;2022-08-02T06:48:44;101787.41;;;23.02;50.22
56082;BME280;41957;52.060;5.138;2022-08-02T06:51:10;101801.47;;;23.07;50.01
56082;BME280;41957;52.060;5.138;2022-08-02T06:53:35;101803.00;;;23.11;50.25
56082;BME280;41957;52.060;5.138;2022-08-02T06:56:00;101798.59;;;23.10;50.37
56082;BME280;41957;52.060;5.138;2022-08-02T06:58:25;101787.38;;;23.20;50.25
56082;BME280;41957;52.060;5.138;2022-08-02T07:00:51;101788.69;;;23.28;50.29
56082;BME280;41957;52.060;5.138;2022-08-02T07:03:16;101787.44;;;23.34;50.16
56082;BME280;41957;52.060;5.138;2022-08-02T07:05:41;101796.56;;;23.31;50.16
56082;BME280;41957;52.060;5.138;2022-08-02T07:08:11;101786.16;;;23.41;50.23
56082;BME280;41957;52.060;5.138;2022-08-02T07:10:36;101780.63;;;23.44;50.04
56082;BME280;41957;52.060;5.138;2022-08-02T07:13:02;101791.94;;;23.49;49.98
56082;BME280;41957;52.060;5.138;2022-08-02T07:15:27;101785.81;;;23.47;50.01
56082;BME280;41957;52.060;5.138;2022-08-02T07:17:52;101787.13;;;23.56;50.06
56082;BME280;41957;52.060;5.138;2022-08-02T07:20:18;101791.47;;;23.58;50.09
56082;BME280;41957;52.060;5.138;2022-08-02T07:22:43;101791.09;;;23.49;50.40
56082;BME280;41957;52.060;5.138;2022-08-02T07:25:08;101790.91;;;23.52;50.24
56082;BME280;41957;52.060;5.138;2022-08-02T07:27:34;101783.66;;;23.70;50.20
56082;BME280;41957;52.060;5.138;2022-08-02T07:29:59;101787.81;;;23.75;49.82
56082;BME280;41957;52.060;5.138;2022-08-02T07:32:25;101787.28;;;23.85;49.80
56082;BME280;41957;52.060;5.138;2022-08-02T07:34:51;101785.22;;;23.90;49.44
56082;BME280;41957;52.060;5.138;2022-08-02T07:37:17;101777.84;;;23.93;49.43
56082;BME280;41957;52.060;5.138;2022-08-02T07:39:42;101776.78;;;23.96;49.44
56082;BME280;41957;52.060;5.138;2022-08-02T07:42:07;101779.19;;;24.00;49.80
56082;BME280;41957;52.060;5.138;2022-08-02T07:44:33;101777.19;;;24.04;49.70
56082;BME280;41957;52.060;5.138;2022-08-02T07:47:01;101779.00;;;24.03;49.61
56082;BME280;41957;52.060;5.138;2022-08-02T07:49:26;101774.59;;;24.02;49.40
56082;BME280;41957;52.060;5.138;2022-08-02T07:51:52;101772.00;;;24.01;50.00
56082;BME280;41957;52.060;5.138;2022-08-02T07:54:17;101771.13;;;24.00;49.99
56082;BME280;41957;52.060;5.138;2022-08-02T07:56:42;101766.56;;;24.02;49.61
56082;BME280;41957;52.060;5.138;2022-08-02T07:59:07;101764.66;;;24.04;49.87
56082;BME280;41957;52.060;5.138;2022-08-02T08:01:34;101772.72;;;24.04;49.90
56082;BME280;41957;52.060;5.138;2022-08-02T08:03:59;101764.47;;;24.08;49.76
56082;BME280;41957;52.060;5.138;2022-08-02T08:06:24;101770.78;;;24.07;49.76
56082;BME280;41957;52.060;5.138;2022-08-02T08:08:50;101762.03;;;24.03;50.20
56082;BME280;41957;52.060;5.138;2022-08-02T08:11:15;101765.41;;;24.07;50.20
56082;BME280;41957;52.060;5.138;2022-08-02T08:13:40;101771.00;;;24.18;49.63
56082;BME280;41957;52.060;5.138;2022-08-02T08:16:05;101776.56;;;24.15;50.19
56082;BME280;41957;52.060;5.138;2022-08-02T08:18:31;101774.91;;;24.12;50.25
56082;BME280;41957;52.060;5.138;2022-08-02T08:20:56;101773.69;;;24.18;49.79
56082;BME280;41957;52.060;5.138;2022-08-02T08:23:22;101761.91;;;24.20;50.04
56082;BME280;41957;52.060;5.138;2022-08-02T08:25:47;101771.44;;;24.26;49.86
56082;BME280;41957;52.060;5.138;2022-08-02T08:28:12;101761.25;;;24.31;49.67
56082;BME280;41957;52.060;5.138;2022-08-02T08:30:38;101755.59;;;24.36;49.94
56082;BME280;41957;52.060;5.138;2022-08-02T08:33:04;101768.75;;;24.40;49.82
56082;BME280;41957;52.060;5.138;2022-08-02T08:35:29;101778.81;;;24.37;49.85
56082;BME280;41957;52.060;5.138;2022-08-02T08:37:54;101769.50;;;24.28;49.89
56082;BME280;41957;52.060;5.138;2022-08-02T08:40:20;101773.50;;;24.21;50.40
56082;BME280;41957;52.060;5.138;2022-08-02T08:42:45;101766.72;;;24.30;50.01
56082;BME280;41957;52.060;5.138;2022-08-02T08:45:10;101770.09;;;24.33;50.33
56082;BME280;41957;52.060;5.138;2022-08-02T08:47:37;101767.88;;;24.40;51.19
56082;BME280;41957;52.060;5.138;2022-08-02T08:50:04;101765.19;;;24.25;51.73
56082;BME280;41957;52.060;5.138;2022-08-02T08:52:30;101772.91;;;24.16;52.50
56082;BME280;41957;52.060;5.138;2022-08-02T08:54:59;101775.78;;;24.13;52.44
56082;BME280;41957;52.060;5.138;2022-08-02T08:57:25;101765.59;;;24.03;53.04
56082;BME280;41957;52.060;5.138;2022-08-02T08:59:53;101768.38;;;24.02;53.21
56082;BME280;41957;52.060;5.138;2022-08-02T09:02:18;101775.56;;;24.01;53.46
56082;BME280;41957;52.060;5.138;2022-08-02T09:04:44;101770.47;;;23.97;53.45
56082;BME280;41957;52.060;5.138;2022-08-02T09:07:09;101777.66;;;23.96;53.76
56082;BME280;41957;52.060;5.138;2022-08-02T09:09:34;101762.31;;;23.98;54.35
56082;BME280;41957;52.060;5.138;2022-08-02T09:12:12;101771.06;;;24.02;54.05
56082;BME280;41957;52.060;5.138;2022-08-02T09:14:38;101774.78;;;23.99;54.84
56082;BME280;41957;52.060;5.138;2022-08-02T09:17:09;101778.09;;;24.04;54.15
56082;BME280;41957;52.060;5.138;2022-08-02T09:19:36;101774.25;;;24.09;53.50
56082;BME280;41957;52.060;5.138;2022-08-02T09:22:06;101770.97;;;24.03;53.53
56082;BME280;41957;52.060;5.138;2022-08-02T09:24:45;101772.88;;;24.01;53.79
56082;BME280;41957;52.060;5.138;2022-08-02T09:27:19;101773.38;;;24.08;53.67
56082;BME280;41957;52.060;5.138;2022-08-02T09:29:45;101765.50;;;24.05;53.45
56082;BME280;41957;52.060;5.138;2022-08-02T09:32:10;101767.34;;;24.04;53.69
56082;BME280;41957;52.060;5.138;2022-08-02T09:34:49;101765.28;;;23.94;54.04
56082;BME280;41957;52.060;5.138;2022-08-02T09:37:21;101768.75;;;23.96;53.94
56082;BME280;41957;52.060;5.138;2022-08-02T09:39:47;101756.72;;;23.87;53.82
56082;BME280;41957;52.060;5.138;2022-08-02T09:42:12;101775.19;;;23.77;54.40
56082;BME280;41957;52.060;5.138;2022-08-02T09:44:39;101774.16;;;23.80;54.52
56082;BME280;41957;52.060;5.138;2022-08-02T09:47:12;101766.84;;;23.82;54.11
56082;BME280;41957;52.060;5.138;2022-08-02T09:49:44;101766.44;;;23.74;54.62
56082;BME280;41957;52.060;5.138;2022-08-02T09:52:09;101770.94;;;23.73;54.43
56082;BME280;41957;52.060;5.138;2022-08-02T09:54:36;101777.19;;;23.74;54.76
56082;BME280;41957;52.060;5.138;2022-08-02T09:57:03;101778.63;;;23.79;54.47
56082;BME280;41957;52.060;5.138;2022-08-02T09:59:29;101773.44;;;23.76;54.59
56082;BME280;41957;52.060;5.138;2022-08-02T10:01:55;101778.06;;;23.74;54.54
56082;BME280;41957;52.060;5.138;2022-08-02T10:04:22;101777.44;;;23.69;54.95
56082;BME280;41957;52.060;5.138;2022-08-02T10:06:48;101781.91;;;23.69;54.86
56082;BME280;41957;52.060;5.138;2022-08-02T10:09:15;101778.13;;;23.73;54.79
56082;BME280;41957;52.060;5.138;2022-08-02T10:11:40;101781.59;;;23.75;54.92
56082;BME280;41957;52.060;5.138;2022-08-02T10:14:07;101780.06;;;23.71;55.00
56082;BME280;41957;52.060;5.138;2022-08-02T10:16:33;101787.28;;;23.69;55.18
56082;BME280;41957;52.060;5.138;2022-08-02T10:18:59;101783.59;;;23.71;55.04
56082;BME280;41957;52.060;5.138;2022-08-02T10:21:29;101775.69;;;23.68;55.04
56082;BME280;41957;52.060;5.138;2022-08-02T10:26:29;101775.94;;;23.64;55.00
56082;BME280;41957;52.060;5.138;2022-08-02T10:28:55;101780.38;;;23.65;55.01
56082;BME280;41957;52.060;5.138;2022-08-02T10:31:24;101776.72;;;23.66;55.06
56082;BME280;41957;52.060;5.138;2022-08-02T10:33:51;101770.56;;;23.64;55.30
56082;BME280;41957;52.060;5.138;2022-08-02T10:36:18;101778.78;;;23.61;55.53
56082;BME280;41957;52.060;5.138;2022-08-02T10:38:43;101784.16;;;23.61;55.40
56082;BME280;41957;52.060;5.138;2022-08-02T10:41:09;101768.91;;;23.61;55.28
56082;BME280;41957;52.060;5.138;2022-08-02T10:51:53;101758.19;;;23.61;55.12
56082;BME280;41957;52.060;5.138;2022-08-02T10:54:22;101755.69;;;23.58;55.45
56082;BME280;41957;52.060;5.138;2022-08-02T10:56:48;101757.50;;;23.57;55.22
56082;BME280;41957;52.060;5.138;2022-08-02T11:01:49;101746.94;;;23.54;55.18
56082;BME280;41957;52.060;5.138;2022-08-02T11:04:14;101750.59;;;23.53;55.21
56082;BME280;41957;52.060;5.138;2022-08-02T11:09:24;101741.75;;;23.51;55.37
56082;BME280;41957;52.060;5.138;2022-08-02T11:14:24;101741.75;;;23.51;55.53
56082;BME280;41957;52.060;5.138;2022-08-02T11:19:24;101741.75;;;23.51;55.31
56082;BME280;41957;52.060;5.138;2022-08-02T11:24:28;101742.72;;;23.50;55.36
56082;BME280;41957;52.060;5.138;2022-08-02T11:26:54;101748.16;;;23.49;55.21
56082;BME280;41957;52.060;5.138;2022-08-02T11:29:20;101747.41;;;23.47;55.58
56082;BME280;41957;52.060;5.138;2022-08-02T11:31:45;101751.00;;;23.46;55.38
56082;BME280;41957;52.060;5.138;2022-08-02T11:34:11;101751.13;;;23.44;55.35
56082;BME280;41957;52.060;5.138;2022-08-02T11:36:43;101753.00;;;23.42;55.51
56082;BME280;41957;52.060;5.138;2022-08-02T11:39:12;101737.09;;;23.39;55.40
56082;BME280;41957;52.060;5.138;2022-08-02T11:41:38;101746.97;;;23.39;55.37
56082;BME280;41957;52.060;5.138;2022-08-02T11:44:03;101738.03;;;23.38;55.49
56082;BME280;41957;52.060;5.138;2022-08-02T11:46:29;101747.91;;;23.38;55.34
56082;BME280;41957;52.060;5.138;2022-08-02T11:48:54;101735.44;;;23.36;55.45
56082;BME280;41957;52.060;5.138;2022-08-02T11:51:19;101727.31;;;23.38;55.36
56082;BME280;41957;52.060;5.138;2022-08-02T11:53:46;101733.44;;;23.40;55.22
56082;BME280;41957;52.060;5.138;2022-08-02T11:56:12;101726.16;;;23.42;55.37
56082;BME280;41957;52.060;5.138;2022-08-02T11:58:37;101735.09;;;23.43;55.14
56082;BME280;41957;52.060;5.138;2022-08-02T12:01:03;101738.81;;;23.40;55.23
56082;BME280;41957;52.060;5.138;2022-08-02T12:03:38;101725.38;;;23.40;55.18
56082;BME280;41957;52.060;5.138;2022-08-02T12:06:04;101734.41;;;23.39;55.23
56082;BME280;41957;52.060;5.138;2022-08-02T12:08:30;101749.47;;;23.42;55.31
56082;BME280;41957;52.060;5.138;2022-08-02T12:10:55;101734.16;;;23.44;55.29
56082;BME280;41957;52.060;5.138;2022-08-02T12:13:21;101747.47;;;23.45;55.22
56082;BME280;41957;52.060;5.138;2022-08-02T12:15:46;101742.97;;;23.46;55.19
56082;BME280;41957;52.060;5.138;2022-08-02T12:18:16;101734.84;;;23.47;54.81
56082;BME280;41957;52.060;5.138;2022-08-02T12:21:00;101741.06;;;23.48;54.47
56082;BME280;41957;52.060;5.138;2022-08-02T12:23:26;101744.59;;;23.48;54.46
56082;BME280;41957;52.060;5.138;2022-08-02T12:26:04;101733.00;;;23.48;53.93
56082;BME280;41957;52.060;5.138;2022-08-02T12:28:33;101738.38;;;23.48;53.83
56082;BME280;41957;52.060;5.138;2022-08-02T12:30:59;101748.16;;;23.49;53.79
56082;BME280;41957;52.060;5.138;2022-08-02T12:33:26;101739.25;;;23.48;53.66
56082;BME280;41957;52.060;5.138;2022-08-02T12:35:52;101737.41;;;23.49;53.48
56082;BME280;41957;52.060;5.138;2022-08-02T12:38:18;101730.34;;;23.48;53.45
56082;BME280;41957;52.060;5.138;2022-08-02T12:40:43;101730.22;;;23.49;53.54
56082;BME280;41957;52.060;5.138;2022-08-02T12:43:21;101735.69;;;23.48;53.77
56082;BME280;41957;52.060;5.138;2022-08-02T12:45:51;101736.56;;;23.48;53.82
56082;BME280;41957;52.060;5.138;2022-08-02T12:48:30;101740.28;;;23.46;53.90
56082;BME280;41957;52.060;5.138;2022-08-02T12:50:55;101735.09;;;23.43;53.96
56082;BME280;41957;52.060;5.138;2022-08-02T12:53:21;101732.50;;;23.41;53.94
56082;BME280;41957;52.060;5.138;2022-08-02T12:55:55;101727.13;;;23.41;53.88
56082;BME280;41957;52.060;5.138;2022-08-02T12:58:21;101733.25;;;23.43;53.99
56082;BME280;41957;52.060;5.138;2022-08-02T13:00:57;101724.28;;;23.44;53.98
56082;BME280;41957;52.060;5.138;2022-08-02T13:03:22;101723.50;;;23.42;54.11
56082;BME280;41957;52.060;5.138;2022-08-02T13:05:48;101727.91;;;23.43;54.39
56082;BME280;41957;52.060;5.138;2022-08-02T13:08:13;101722.53;;;23.43;54.39
56082;BME280;41957;52.060;5.138;2022-08-02T13:10:39;101721.66;;;23.43;54.19
56082;BME280;41957;52.060;5.138;2022-08-02T13:13:04;101717.34;;;23.40;54.37
56082;BME280;41957;52.060;5.138;2022-08-02T13:15:30;101724.47;;;23.41;54.46
56082;BME280;41957;52.060;5.138;2022-08-02T13:17:56;101718.31;;;23.39;54.48
56082;BME280;41957;52.060;5.138;2022-08-02T13:20:23;101719.16;;;23.40;54.41